Time;durP1;ratioP1;P1;durP2;ratioP2;P2;SDS_P1;SDS_P2;PMS_P1;PMS_P2;Temp;Humidity;BMP_temperature;BMP_pressure;BME280_temperature;BME280_humidity;BME280_pressure;Samples;Min_cycle;Max_cycle;Signal;HPM_P1;HPM_P2
2022/03/10 00:03:01;;;;;;;8.73;8.53;;;0.80;99.90;;;;;;5097300;28;20301;-85
2022/03/10 00:05:28;;;;;;;8.93;8.73;;;0.80;99.90;;;;;;5127683;22;20447;-81
2022/03/10 00:07:56;;;;;;;8.90;8.70;;;0.80;99.90;;;;;;5107949;28;20302;-82
2022/03/10 00:10:25;;;;;;;8.70;8.50;;;0.70;99.90;;;;;;5101293;28;20226;-81
2022/03/10 00:12:54;;;;;;;8.83;8.63;;;0.70;99.90;;;;;;5099847;28;20232;-81
2022/03/10 00:15:24;;;;;;;8.70;8.50;;;0.70;99.90;;;;;;5099487;27;20237;-82
2022/03/10 00:17:53;;;;;;;9.00;8.80;;;0.60;99.90;;;;;;5102152;28;20287;-81
2022/03/10 00:20:22;;;;;;;9.00;8.80;;;0.60;99.90;;;;;;5099733;28;20226;-81
2022/03/10 00:22:52;;;;;;;9.10;8.90;;;0.50;99.90;;;;;;5099191;28;20290;-82
2022/03/10 00:25:21;;;;;;;9.30;9.00;;;0.40;99.90;;;;;;5098863;28;20229;-82
2022/03/10 00:27:51;;;;;;;8.73;8.53;;;0.40;99.90;;;;;;5099460;28;20295;-82
2022/03/10 00:30:19;;;;;;;8.63;8.43;;;0.30;99.90;;;;;;5102110;28;20232;-82
2022/03/10 00:32:48;;;;;;;8.80;8.60;;;0.20;99.90;;;;;;5104112;28;20247;-81
2022/03/10 00:35:19;;;;;;;8.80;8.60;;;0.10;99.90;;;;;;5102554;28;20236;-81
2022/03/10 00:37:48;;;;;;;9.00;8.80;;;0.10;99.90;;;;;;5103125;28;20233;-81
2022/03/10 00:40:17;;;;;;;8.97;8.77;;;0.10;99.90;;;;;;5102751;28;20252;-81
2022/03/10 00:42:46;;;;;;;8.77;8.57;;;0.10;99.90;;;;;;5102685;28;20233;-81
2022/03/10 00:45:18;;;;;;;8.90;8.70;;;0.10;99.90;;;;;;5102855;28;20234;-81
2022/03/10 00:47:47;;;;;;;8.80;8.60;;;0.10;99.90;;;;;;5102445;28;20217;-81
2022/03/10 00:50:15;;;;;;;8.77;8.57;;;0.10;99.90;;;;;;5102443;28;20229;-81
2022/03/10 00:52:45;;;;;;;8.83;8.63;;;0.00;99.90;;;;;;5102630;28;20225;-81
2022/03/10 00:55:15;;;;;;;9.10;8.90;;;0.00;99.90;;;;;;5102778;28;20407;-86
2022/03/10 00:57:43;;;;;;;8.93;8.73;;;0.10;99.90;;;;;;5104945;28;20328;-83
2022/03/10 01:00:12;;;;;;;8.80;8.60;;;0.20;99.90;;;;;;5105436;28;20230;-83
2022/03/10 01:02:41;;;;;;;8.67;8.47;;;0.20;99.90;;;;;;5105020;28;20716;-81
2022/03/10 01:05:11;;;;;;;8.70;8.50;;;0.30;99.90;;;;;;5104721;28;20237;-82
2022/03/10 01:07:39;;;;;;;8.90;8.70;;;0.30;99.90;;;;;;5105185;28;20222;-81
2022/03/10 01:10:09;;;;;;;8.60;8.40;;;0.30;99.90;;;;;;5106372;28;20221;-82
2022/03/10 01:12:40;;;;;;;8.77;8.57;;;0.20;99.90;;;;;;5107048;28;20214;-81
2022/03/10 01:15:10;;;;;;;8.87;8.67;;;0.20;99.90;;;;;;5106560;28;20237;-82
2022/03/10 01:17:38;;;;;;;9.03;8.83;;;0.10;99.90;;;;;;5107856;28;20316;-83
2022/03/10 01:20:08;;;;;;;8.70;8.50;;;0.10;99.90;;;;;;5106696;28;20253;-80
2022/03/10 01:22:37;;;;;;;9.00;8.80;;;0.10;99.90;;;;;;5112552;28;20229;-83
2022/03/10 01:25:07;;;;;;;9.10;8.90;;;0.00;99.90;;;;;;5108662;28;20229;-82
2022/03/10 01:27:35;;;;;;;8.93;8.73;;;0.00;99.90;;;;;;5104372;28;20225;-82
2022/03/10 01:30:04;;;;;;;8.80;8.60;;;0.00;99.90;;;;;;5103859;28;20248;-83
2022/03/10 01:32:31;;;;;;;9.00;8.80;;;0.00;99.90;;;;;;5103560;28;20226;-82
2022/03/10 01:35:00;;;;;;;9.30;9.00;;;0.00;99.90;;;;;;5104064;28;20233;-82
2022/03/10 01:37:30;;;;;;;9.10;8.90;;;0.00;99.90;;;;;;5105965;28;20241;-82
2022/03/10 01:39:58;;;;;;;8.90;8.70;;;0.00;99.90;;;;;;5105098;28;20233;-83
2022/03/10 01:42:26;;;;;;;8.93;8.73;;;0.00;99.90;;;;;;5105878;28;20222;-83
2022/03/10 01:44:54;;;;;;;9.23;8.97;;;0.00;99.90;;;;;;5108789;28;20311;-83
2022/03/10 01:47:22;;;;;;;8.90;8.70;;;0.00;99.90;;;;;;5113200;28;20230;-83
2022/03/10 01:49:50;;;;;;;9.07;8.87;;;0.00;99.90;;;;;;5104756;28;20226;-82
2022/03/10 01:52:20;;;;;;;9.13;8.90;;;-0.10;99.90;;;;;;5104273;28;20229;-82
2022/03/10 01:54:50;;;;;;;9.10;8.90;;;-0.10;99.90;;;;;;5103068;28;20228;-82
2022/03/10 01:57:18;;;;;;;8.90;8.70;;;-0.20;99.90;;;;;;5103216;28;20266;-83
2022/03/10 01:59:46;;;;;;;9.20;8.90;;;-0.20;99.90;;;;;;5102467;28;20224;-82
2022/03/10 02:02:14;;;;;;;8.87;8.67;;;-0.20;99.90;;;;;;5102892;28;20229;-82
2022/03/10 02:04:42;;;;;;;9.50;9.20;;;-0.20;99.90;;;;;;5103030;28;20260;-82
2022/03/10 02:10:16;;;;;;;9.00;8.80;;;-0.30;99.90;;;;;;5102344;28;20329;-82
2022/03/10 02:10:17;;;;;;;8.90;8.70;;;-0.30;99.90;;;;;;5078017;28;20230;-82
2022/03/10 02:12:45;;;;;;;9.43;9.13;;;-0.30;99.90;;;;;;5102323;28;20230;-82
2022/03/10 02:18:01;;;;;;;8.73;8.53;;;-0.40;99.90;;;;;;5095602;28;20262;-82
2022/03/10 02:20:29;;;;;;;9.10;8.90;;;-0.40;99.90;;;;;;5101843;28;20367;-82
2022/03/10 02:22:58;;;;;;;9.40;9.10;;;-0.40;99.90;;;;;;5097490;28;20233;-82
2022/03/10 02:25:28;;;;;;;9.10;8.90;;;-0.40;99.90;;;;;;5090140;28;20229;-82
2022/03/10 02:27:57;;;;;;;9.00;8.80;;;-0.40;99.90;;;;;;5081922;28;20321;-82
2022/03/10 02:30:30;;;;;;;8.80;8.60;;;-0.40;99.90;;;;;;5081573;28;20223;-82
2022/03/10 02:32:58;;;;;;;8.87;8.67;;;-0.40;99.90;;;;;;5082190;28;20280;-82
2022/03/10 02:35:27;;;;;;;9.33;9.03;;;-0.40;99.90;;;;;;5082473;28;20237;-82
2022/03/10 02:37:54;;;;;;;9.17;8.90;;;-0.40;99.90;;;;;;5082099;28;20230;-82
2022/03/10 02:40:24;;;;;;;9.03;8.83;;;-0.40;99.90;;;;;;5081363;28;20218;-83
2022/03/10 02:42:51;;;;;;;9.07;8.87;;;-0.40;99.90;;;;;;5081001;28;20284;-82
2022/03/10 02:45:19;;;;;;;9.30;9.00;;;-0.40;99.90;;;;;;5088582;28;20233;-83
2022/03/10 02:47:47;;;;;;;9.30;9.00;;;-0.50;99.90;;;;;;5101375;28;20225;-82
2022/03/10 02:50:15;;;;;;;9.23;8.97;;;-0.50;99.90;;;;;;5099515;28;20240;-82
2022/03/10 02:52:44;;;;;;;9.40;9.10;;;-0.50;99.90;;;;;;5100338;28;20234;-82
2022/03/10 02:55:13;;;;;;;9.50;9.20;;;-0.50;99.90;;;;;;5100874;28;20264;-82
2022/03/10 02:57:43;;;;;;;9.67;9.37;;;-0.60;99.90;;;;;;5100759;28;20232;-82
2022/03/10 03:00:14;;;;;;;9.40;9.10;;;-0.60;99.90;;;;;;5101122;28;20225;-83
2022/03/10 03:02:42;;;;;;;9.50;9.20;;;-0.60;99.90;;;;;;5100507;28;20243;-83
2022/03/10 03:05:12;;;;;;;9.50;9.20;;;-0.60;99.90;;;;;;5100297;28;20259;-82
2022/03/10 03:07:40;;;;;;;9.33;9.03;;;-0.70;99.90;;;;;;5101540;28;20298;-83
2022/03/10 03:10:10;;;;;;;9.60;9.30;;;-0.70;99.90;;;;;;5100479;28;20228;-82
2022/03/10 03:12:47;;;;;;;9.70;9.40;;;-0.70;99.90;;;;;;5101606;28;20240;-83
2022/03/10 03:15:15;;;;;;;9.80;9.50;;;-0.80;99.90;;;;;;5101537;28;21131;-82
2022/03/10 03:17:43;;;;;;;9.83;9.53;;;-0.90;99.90;;;;;;5098575;28;20225;-82
2022/03/10 03:20:14;;;;;;;9.77;9.47;;;-0.90;99.90;;;;;;5081325;28;20237;-82
2022/03/10 03:22:42;;;;;;;9.80;9.50;;;-1.00;99.90;;;;;;5081062;28;20230;-83
2022/03/10 03:25:13;;;;;;;9.80;9.50;;;-1.00;99.90;;;;;;5080956;28;20238;-82
2022/03/10 03:27:42;;;;;;;9.60;9.30;;;-1.10;99.90;;;;;;5081424;28;20288;-82
2022/03/10 03:30:12;;;;;;;9.57;9.27;;;-1.10;99.90;;;;;;5081262;28;20261;-83
2022/03/10 03:32:40;;;;;;;9.70;9.40;;;-1.10;99.90;;;;;;5085075;28;20222;-82
2022/03/10 03:35:10;;;;;;;9.90;9.60;;;-1.20;99.90;;;;;;5082730;28;20236;-82
2022/03/10 03:37:38;;;;;;;10.10;9.80;;;-1.20;99.90;;;;;;5081890;28;20230;-82
2022/03/10 03:40:08;;;;;;;9.50;9.20;;;-1.20;99.90;;;;;;5082104;28;20230;-82
2022/03/10 03:42:35;;;;;;;9.80;9.50;;;-1.20;99.90;;;;;;5082448;28;20230;-83
2022/03/10 03:45:05;;;;;;;9.60;9.30;;;-1.30;99.90;;;;;;5082060;28;20237;-82
2022/03/10 03:47:35;;;;;;;9.97;9.67;;;-1.30;99.90;;;;;;5081717;28;20230;-82
2022/03/10 03:50:04;;;;;;;9.77;9.47;;;-1.40;99.90;;;;;;5081533;28;20233;-82
2022/03/10 03:52:31;;;;;;;10.10;9.80;;;-1.40;99.90;;;;;;5080737;28;20236;-82
2022/03/10 03:54:59;;;;;;;9.63;9.33;;;-1.50;99.90;;;;;;5081285;28;20240;-82
2022/03/10 03:57:27;;;;;;;9.90;9.60;;;-1.50;99.90;;;;;;5081279;28;20260;-83
2022/03/10 03:59:55;;;;;;;9.90;9.60;;;-1.50;99.90;;;;;;5080311;28;20233;-82
2022/03/10 04:02:23;;;;;;;10.17;9.87;;;-1.60;99.90;;;;;;5080176;28;20245;-82
2022/03/10 04:04:52;;;;;;;10.00;9.70;;;-1.60;99.90;;;;;;5081663;28;20237;-83
2022/03/10 04:07:20;;;;;;;10.10;9.80;;;-1.60;99.90;;;;;;5081501;28;20305;-83
2022/03/10 04:09:48;;;;;;;10.03;9.73;;;-1.60;99.90;;;;;;5081178;28;20245;-82
2022/03/10 04:12:16;;;;;;;9.77;9.47;;;-1.60;99.90;;;;;;5081476;28;20237;-83
2022/03/10 04:14:44;;;;;;;9.47;9.17;;;-1.70;99.90;;;;;;5078511;28;20233;-82
2022/03/10 04:17:11;;;;;;;9.80;9.50;;;-1.70;99.90;;;;;;5078056;28;20240;-82
2022/03/10 04:19:39;;;;;;;10.10;9.80;;;-1.80;99.90;;;;;;5079413;28;20237;-83
2022/03/10 04:22:09;;;;;;;9.70;9.40;;;-1.80;99.90;;;;;;5086818;28;20233;-84
2022/03/10 04:24:36;;;;;;;9.90;9.60;;;-1.80;99.90;;;;;;5099187;28;20233;-82
2022/03/10 04:27:05;;;;;;;10.10;9.80;;;-1.90;99.90;;;;;;5095014;28;20293;-83
2022/03/10 04:29:33;;;;;;;10.27;9.97;;;-2.00;99.90;;;;;;5079147;28;20240;-82
2022/03/10 04:32:01;;;;;;;10.27;9.97;;;-2.00;99.90;;;;;;5077701;28;20290;-83
2022/03/10 04:34:29;;;;;;;9.73;9.43;;;-2.00;99.90;;;;;;5078830;28;20701;-83
2022/03/10 04:36:57;;;;;;;9.90;9.60;;;-1.90;99.90;;;;;;5079133;28;20242;-83
2022/03/10 04:39:26;;;;;;;9.90;9.60;;;-1.90;99.90;;;;;;5079003;28;20226;-82
2022/03/10 04:41:54;;;;;;;10.07;9.77;;;-1.90;99.90;;;;;;5079085;28;20240;-83
2022/03/10 04:44:22;;;;;;;10.10;9.80;;;-1.90;99.90;;;;;;5078894;28;20942;-83
2022/03/10 04:46:50;;;;;;;9.80;9.50;;;-1.90;99.90;;;;;;5078944;28;20239;-82
2022/03/10 04:49:18;;;;;;;9.80;9.50;;;-1.90;99.90;;;;;;5088612;28;20234;-83
2022/03/10 04:51:45;;;;;;;10.10;9.80;;;-1.90;99.90;;;;;;5080520;28;20226;-83
2022/03/10 04:54:13;;;;;;;9.73;9.43;;;-1.90;99.90;;;;;;5080404;28;20707;-83
2022/03/10 04:56:43;;;;;;;9.63;9.33;;;-1.90;99.90;;;;;;5079381;28;20248;-83
2022/03/10 04:59:10;;;;;;;10.30;10.00;;;-2.00;99.90;;;;;;5079129;28;20327;-83
2022/03/10 05:01:38;;;;;;;10.23;9.93;;;-2.10;99.90;;;;;;5079034;28;20231;-83
2022/03/10 05:04:06;;;;;;;10.43;10.13;;;-2.10;99.90;;;;;;5078930;28;20233;-83
2022/03/10 05:06:34;;;;;;;10.10;9.80;;;-2.10;99.90;;;;;;5078742;28;20244;-82
2022/03/10 05:09:02;;;;;;;10.50;10.20;;;-2.20;99.90;;;;;;5079440;28;20232;-83
2022/03/10 05:11:30;;;;;;;9.93;9.63;;;-2.20;99.90;;;;;;5092630;28;20264;-83
2022/03/10 05:13:59;;;;;;;10.50;10.20;;;-2.30;99.90;;;;;;5094653;28;20239;-82
2022/03/10 05:16:27;;;;;;;10.47;10.17;;;-2.20;99.90;;;;;;5086909;28;20244;-82
2022/03/10 05:18:54;;;;;;;10.33;10.03;;;-2.20;99.90;;;;;;5096314;28;20212;-83
2022/03/10 05:21:22;;;;;;;11.20;10.90;;;-2.20;99.90;;;;;;5096671;28;20238;-83
2022/03/10 05:23:52;;;;;;;11.00;10.70;;;-2.20;99.90;;;;;;5088722;28;20238;-82
2022/03/10 05:26:20;;;;;;;10.97;10.67;;;-2.30;99.90;;;;;;5086506;28;20236;-83
2022/03/10 05:28:48;;;;;;;11.20;10.90;;;-2.20;99.90;;;;;;5093617;28;20222;-83
2022/03/10 05:31:17;;;;;;;11.00;10.70;;;-2.30;99.90;;;;;;5099365;28;20232;-83
2022/03/10 05:33:45;;;;;;;11.37;11.03;;;-2.30;99.90;;;;;;5099818;28;20235;-82
2022/03/10 05:36:12;;;;;;;10.80;10.50;;;-2.20;99.90;;;;;;5098738;28;20224;-82
2022/03/10 05:38:40;;;;;;;10.90;10.60;;;-2.20;99.90;;;;;;5099962;28;20221;-83
2022/03/10 05:41:09;;;;;;;11.00;10.70;;;-2.20;99.90;;;;;;5099171;28;20239;-82
2022/03/10 05:43:37;;;;;;;10.47;10.17;;;-2.10;99.90;;;;;;5099295;28;20232;-83
2022/03/10 05:46:05;;;;;;;10.37;10.07;;;-2.10;99.90;;;;;;5099683;28;20244;-83
2022/03/10 05:48:35;;;;;;;10.80;10.50;;;-2.10;99.90;;;;;;5100222;28;20230;-83
2022/03/10 05:51:02;;;;;;;10.50;10.20;;;-2.10;99.90;;;;;;5100849;28;20245;-82
2022/03/10 05:53:30;;;;;;;10.43;10.13;;;-2.00;99.90;;;;;;5100533;28;20255;-81
2022/03/10 05:55:58;;;;;;;10.80;10.50;;;-2.00;99.90;;;;;;5100435;28;20223;-84
2022/03/10 05:58:26;;;;;;;10.23;9.93;;;-2.00;99.90;;;;;;5099647;28;20255;-82
2022/03/10 06:00:54;;;;;;;10.40;10.10;;;-1.90;99.90;;;;;;5099023;28;20245;-82
2022/03/10 06:03:22;;;;;;;10.13;9.83;;;-1.90;99.90;;;;;;5097538;28;20344;-83
2022/03/10 06:05:51;;;;;;;10.10;9.80;;;-1.90;99.90;;;;;;5091937;28;20261;-82
2022/03/10 06:08:19;;;;;;;9.70;9.40;;;-1.80;99.90;;;;;;5220164;22;20219;-80
2022/03/10 06:10:51;;;;;;;10.60;10.30;;;-1.80;99.90;;;;;;5172840;27;20216;-79
2022/03/10 06:13:19;;;;;;;10.37;10.07;;;-1.80;99.90;;;;;;5164419;27;20229;-80
2022/03/10 06:15:49;;;;;;;10.47;10.17;;;-1.80;99.90;;;;;;5164288;27;20201;-79
2022/03/10 06:18:18;;;;;;;10.43;10.13;;;-1.70;99.90;;;;;;5146892;27;20215;-77
2022/03/10 06:20:47;;;;;;;10.20;9.90;;;-1.70;99.90;;;;;;5141862;27;20229;-81
2022/03/10 06:23:26;;;;;;;10.50;10.20;;;-1.70;99.90;;;;;;5125165;28;20220;-81
2022/03/10 06:25:55;;;;;;;10.43;10.13;;;-1.70;99.90;;;;;;5124575;27;20251;-82
2022/03/10 06:28:26;;;;;;;10.20;9.90;;;-1.70;99.90;;;;;;5124257;27;20231;-82
2022/03/10 06:30:55;;;;;;;11.10;10.80;;;-1.70;99.90;;;;;;5144085;27;20239;-81
2022/03/10 06:33:24;;;;;;;10.70;10.40;;;-1.60;99.90;;;;;;5145043;27;20303;-81
2022/03/10 06:35:53;;;;;;;10.03;9.73;;;-1.60;99.90;;;;;;5145585;27;20238;-82
2022/03/10 06:38:39;;;;;;;10.50;10.20;;;-1.60;99.90;;;;;;5149197;27;20409;-84
2022/03/10 06:41:09;;;;;;;10.27;9.97;;;-1.60;99.90;;;;;;5147606;27;20290;-85
2022/03/10 06:43:39;;;;;;;10.13;9.83;;;-1.50;99.90;;;;;;5150427;27;20227;-83
2022/03/10 06:46:11;;;;;;;10.10;9.80;;;-1.50;99.90;;;;;;5160892;27;20220;-85
2022/03/10 06:48:39;;;;;;;10.20;9.90;;;-1.50;99.90;;;;;;5150154;27;20248;-84
2022/03/10 06:51:08;;;;;;;10.10;9.80;;;-1.50;99.90;;;;;;5143089;27;20270;-84
2022/03/10 06:53:46;;;;;;;10.07;9.77;;;-1.40;99.90;;;;;;5128871;27;20250;-84
2022/03/10 06:56:16;;;;;;;10.37;10.07;;;-1.30;99.90;;;;;;5135818;27;20235;-84
2022/03/10 06:58:45;;;;;;;10.20;9.90;;;-1.20;99.90;;;;;;5129311;28;20212;-84
2022/03/10 07:01:15;;;;;;;10.00;9.70;;;-1.10;99.90;;;;;;5132862;27;20219;-84
2022/03/10 07:03:43;;;;;;;10.30;10.00;;;-1.00;99.90;;;;;;5137550;28;20247;-82
2022/03/10 07:06:13;;;;;;;10.37;10.07;;;-0.80;99.90;;;;;;5128359;27;20227;-83
2022/03/10 07:08:51;;;;;;;10.20;9.90;;;-0.70;99.90;;;;;;5126651;27;20251;-84
2022/03/10 07:11:21;;;;;;;10.50;10.20;;;-0.60;99.90;;;;;;5124950;28;20236;-83
2022/03/10 07:13:50;;;;;;;10.33;10.03;;;-0.40;99.90;;;;;;5139540;27;20224;-84
2022/03/10 07:16:20;;;;;;;10.40;10.10;;;-0.30;99.90;;;;;;5129091;27;20264;-84
2022/03/10 07:18:51;;;;;;;10.43;10.13;;;-0.20;99.90;;;;;;5126201;28;20228;-84
2022/03/10 07:21:27;;;;;;;10.77;10.47;;;-0.10;99.90;;;;;;5126164;27;20305;-84
2022/03/10 07:26:43;;;;;;;10.43;10.13;;;0.10;99.90;;;;;;5138853;27;20233;-83
2022/03/10 07:29:14;;;;;;;10.47;10.17;;;0.30;99.90;;;;;;5132025;27;20220;-84
2022/03/10 07:31:43;;;;;;;10.33;10.03;;;0.40;99.90;;;;;;5147149;27;20228;-84
2022/03/10 07:40:25;;;;;;;10.70;10.40;;;0.80;99.90;;;;;;5123989;28;20227;-86
2022/03/10 08:25:27;;;;;;;;;;;;;;;;;;;;;
2022/03/10 08:28:28;;;;;;;10.47;10.17;;;3.30;99.90;;;;;;4917093;28;20240;-82
2022/03/10 09:06:15;;;;;;;;;;;;;;;;;;;;;
2022/03/10 09:09:03;;;;;;;10.00;9.70;;;7.00;99.90;;;;;;5102286;28;21098;-88
2022/03/10 09:19:55;;;;;;;;;;;;;;;;;;;;;
2022/03/10 09:43:29;;;;;;;10.17;9.87;;;9.30;99.90;;;;;;5131235;27;20318;-84
2022/03/10 09:52:29;;;;;;;10.50;10.20;;;10.30;99.90;;;;;;5136868;27;20215;-83
2022/03/10 09:55:17;;;;;;;10.17;9.87;;;10.20;99.90;;;;;;5142197;27;20204;-84
2022/03/10 09:58:44;;;;;;;10.40;10.10;;;10.30;99.90;;;;;;5142121;27;20220;-84
2022/03/10 10:11:13;;;;;;;9.73;9.43;;;11.30;99.90;;;;;;5123322;27;20236;-85
2022/03/10 10:14:17;;;;;;;10.20;9.90;;;11.50;99.90;;;;;;5126537;27;20224;-85
2022/03/10 10:17:31;;;;;;;10.00;9.70;;;11.70;99.90;;;;;;5139216;27;20239;-84
2022/03/10 10:20:44;;;;;;;10.50;10.20;;;11.90;99.90;;;;;;5140762;27;20240;-84
2022/03/10 10:27:20;;;;;;;10.03;9.73;;;12.30;99.90;;;;;;5122446;28;20231;-84
2022/03/10 10:43:20;;;;;;;9.93;9.63;;;14.20;99.90;;;;;;5119332;27;20220;-86
2022/03/10 11:07:49;;;;;;;10.80;10.50;;;16.20;99.90;;;;;;4872461;29;20246;-84
2022/03/10 11:18:10;;;;;;;10.70;10.40;;;16.20;99.90;;;;;;5065369;28;20230;-85
2022/03/10 11:40:25;;;;;;;10.45;10.15;;;17.20;99.10;;;;;;5069098;28;20235;-85
2022/03/10 11:44:18;;;;;;;10.60;10.30;;;17.00;99.40;;;;;;5049271;28;20244;-84
2022/03/10 11:47:48;;;;;;;10.70;10.40;;;16.60;99.00;;;;;;5123215;28;20232;-84
2022/03/10 11:54:48;;;;;;;10.40;10.10;;;16.40;96.50;;;;;;5122209;28;20294;-85
2022/03/10 12:56:47;;;;;;;9.70;9.40;;;18.30;88.40;;;;;;5105311;28;20225;-88
2022/03/10 13:27:37;;;;;;;10.13;9.82;;;19.30;83.30;;;;;;5090811;27;20224;-88
2022/03/10 13:41:13;;;;;;;9.90;9.60;;;17.90;84.60;;;;;;5046488;28;20283;-90
2022/03/10 13:44:17;;;;;;;10.10;9.80;;;17.80;85.40;;;;;;5058833;28;20219;-90
2022/03/10 13:53:18;;;;;;;10.30;10.00;;;19.20;84.00;;;;;;5139214;27;20236;-90
2022/03/10 13:56:12;;;;;;;10.23;9.93;;;19.00;80.00;;;;;;5139626;28;20233;-89
2022/03/10 13:59:55;;;;;;;10.50;10.20;;;18.90;81.70;;;;;;5140046;27;20280;-90
2022/03/10 14:06:35;;;;;;;10.10;9.80;;;18.90;76.10;;;;;;5138821;27;20208;-90
2022/03/10 14:13:26;;;;;;;10.10;9.80;;;18.90;71.30;;;;;;5139068;27;20224;-90
2022/03/10 14:20:34;;;;;;;9.90;9.60;;;18.60;69.30;;;;;;5095971;28;20198;-88
2022/03/10 14:44:38;;;;;;;;;;;;;;;;;;;;;
2022/03/10 18:19:29;;;;;;;9.20;8.90;;;9.00;99.30;;;;;;5137240;27;20207;-83
2022/03/10 19:24:24;;;;;;;9.17;8.90;;;7.70;99.90;;;;;;5122920;28;20216;-84
2022/03/10 19:27:35;;;;;;;9.00;8.80;;;7.70;99.90;;;;;;5128661;28;20251;-85
2022/03/10 19:33:36;;;;;;;8.60;8.40;;;7.60;99.90;;;;;;5125220;27;20232;-85
2022/03/10 19:40:04;;;;;;;9.00;8.80;;;7.50;99.90;;;;;;5126085;28;20280;-85
2022/03/10 19:56:17;;;;;;;9.13;8.83;;;7.30;99.90;;;;;;5108057;28;20233;-80
2022/03/10 20:01:39;;;;;;;8.90;8.70;;;7.80;99.90;;;;;;5123800;28;20346;-82
2022/03/10 20:07:02;;;;;;;8.97;8.77;;;7.40;99.90;;;;;;5124863;28;20666;-82
2022/03/10 20:10:00;;;;;;;9.20;8.90;;;7.30;99.90;;;;;;5125752;28;20243;-81
2022/03/10 20:12:31;;;;;;;8.90;8.70;;;7.10;99.90;;;;;;5119918;28;20232;-81
2022/03/10 20:15:06;;;;;;;8.90;8.70;;;7.00;99.90;;;;;;5125069;28;20229;-79
2022/03/10 20:17:37;;;;;;;8.60;8.40;;;7.00;99.90;;;;;;5114368;28;20255;-80
2022/03/10 20:20:07;;;;;;;8.70;8.50;;;6.90;99.90;;;;;;5103924;28;20222;-81
2022/03/10 20:22:35;;;;;;;8.50;8.30;;;6.80;99.90;;;;;;5120916;28;20237;-81
2022/03/10 20:25:12;;;;;;;8.57;8.37;;;6.80;99.90;;;;;;5124629;28;20292;-80
2022/03/10 20:27:41;;;;;;;8.50;8.30;;;6.70;99.90;;;;;;5106222;28;20217;-81
2022/03/10 20:33:35;;;;;;;8.30;8.10;;;6.70;99.90;;;;;;5124499;27;20523;-80
2022/03/10 20:36:04;;;;;;;8.47;8.27;;;6.60;99.90;;;;;;5108182;28;20225;-80
2022/03/10 20:38:43;;;;;;;8.80;8.60;;;6.60;99.90;;;;;;5112621;28;20229;-79
2022/03/10 20:44:15;;;;;;;8.80;8.60;;;6.50;99.90;;;;;;5469936;22;20275;-80
2022/03/10 21:04:39;;;;;;;8.87;8.67;;;6.30;99.90;;;;;;5132339;28;20290;-81
2022/03/10 21:07:17;;;;;;;8.80;8.60;;;6.20;99.90;;;;;;5133015;28;20231;-80
2022/03/10 21:15:45;;;;;;;8.90;8.70;;;6.20;99.90;;;;;;5107709;28;20210;-79
2022/03/10 21:19:09;;;;;;;9.07;8.83;;;6.10;99.90;;;;;;5107024;28;20260;-81
2022/03/10 21:21:55;;;;;;;9.33;9.03;;;6.10;99.90;;;;;;5104151;28;20249;-80
2022/03/10 21:24:32;;;;;;;9.30;9.00;;;6.00;99.90;;;;;;5104032;28;20259;-80
2022/03/10 21:27:13;;;;;;;9.07;8.87;;;6.00;99.90;;;;;;5108020;28;20209;-79
2022/03/10 21:46:59;;;;;;;9.40;9.10;;;5.70;99.90;;;;;;5080094;28;20228;-80
2022/03/10 21:49:27;;;;;;;9.40;9.10;;;5.70;99.90;;;;;;5080698;28;20223;-78
2022/03/10 21:51:58;;;;;;;9.33;9.03;;;5.70;99.90;;;;;;5080387;28;20219;-80
2022/03/10 21:54:27;;;;;;;9.13;8.90;;;5.60;99.90;;;;;;5081356;28;20246;-80
2022/03/10 21:57:06;;;;;;;9.50;9.20;;;5.50;99.90;;;;;;5076016;28;20215;-79
2022/03/10 21:59:37;;;;;;;9.40;9.10;;;5.50;99.90;;;;;;5073098;28;20227;-79
2022/03/10 22:02:12;;;;;;;9.30;9.00;;;5.40;99.90;;;;;;5074970;28;20257;-80
2022/03/10 22:04:43;;;;;;;9.50;9.20;;;5.40;99.90;;;;;;5070829;28;20251;-82
2022/03/10 22:07:11;;;;;;;9.40;9.10;;;5.30;99.90;;;;;;5064902;28;20321;-80
2022/03/10 22:09:42;;;;;;;9.40;9.10;;;5.30;99.90;;;;;;5064515;28;20225;-80
2022/03/10 22:12:13;;;;;;;9.23;8.93;;;5.20;99.90;;;;;;5064345;28;20333;-80
2022/03/10 22:14:41;;;;;;;9.40;9.10;;;5.20;99.90;;;;;;5063589;28;20256;-80
2022/03/10 22:17:09;;;;;;;9.40;9.10;;;5.10;99.90;;;;;;5063410;28;20298;-79
2022/03/10 22:19:38;;;;;;;9.10;8.87;;;5.10;99.90;;;;;;5062837;28;20246;-79
2022/03/10 22:22:08;;;;;;;9.07;8.87;;;5.00;99.90;;;;;;5062652;28;20262;-80
2022/03/10 22:24:37;;;;;;;9.00;8.80;;;5.00;99.90;;;;;;5062915;28;20237;-79
2022/03/10 22:27:07;;;;;;;9.20;8.90;;;5.00;99.90;;;;;;5062987;28;20227;-79
2022/03/10 22:29:45;;;;;;;9.23;8.93;;;4.90;99.90;;;;;;5068752;28;20312;-79
2022/03/10 22:32:14;;;;;;;9.37;9.07;;;4.90;99.90;;;;;;5076060;28;20257;-80
2022/03/10 22:34:45;;;;;;;9.00;8.80;;;4.80;99.90;;;;;;5072818;28;20234;-80
2022/03/10 22:37:14;;;;;;;9.20;8.90;;;4.80;99.90;;;;;;5064930;28;20246;-80
2022/03/10 22:39:43;;;;;;;9.63;9.33;;;4.70;99.90;;;;;;5063273;28;20222;-79
2022/03/10 22:42:13;;;;;;;9.43;9.13;;;4.70;99.90;;;;;;5063820;28;20225;-80
2022/03/10 22:44:44;;;;;;;9.37;9.07;;;4.70;99.90;;;;;;5063472;28;20227;-80
2022/03/10 22:47:12;;;;;;;9.53;9.23;;;4.70;99.90;;;;;;5083226;28;20360;-80
2022/03/10 22:54:12;;;;;;;9.50;9.20;;;4.60;99.90;;;;;;5082384;28;20214;-81
2022/03/10 22:55:15;;;;;;;9.30;9.00;;;4.60;99.90;;;;;;5080593;28;20218;-80
2022/03/10 22:57:44;;;;;;;9.07;8.83;;;4.50;99.90;;;;;;5081099;28;20328;-80
2022/03/10 23:00:33;;;;;;;9.30;9.00;;;4.50;99.90;;;;;;5081264;28;20226;-79
2022/03/10 23:03:01;;;;;;;9.07;8.87;;;4.40;99.90;;;;;;5080621;28;20230;-79
2022/03/10 23:08:25;;;;;;;9.60;9.30;;;4.40;99.90;;;;;;5081871;28;20234;-80
2022/03/10 23:10:55;;;;;;;9.03;8.83;;;4.30;99.90;;;;;;5082060;28;20268;-80
2022/03/10 23:13:24;;;;;;;9.47;9.17;;;4.30;99.90;;;;;;5081713;28;20260;-80
2022/03/10 23:16:03;;;;;;;9.40;9.10;;;4.20;99.90;;;;;;5081799;28;20741;-79
2022/03/10 23:18:32;;;;;;;9.13;8.90;;;4.20;99.90;;;;;;5081377;28;20230;-80
2022/03/10 23:21:02;;;;;;;9.30;9.00;;;4.20;99.90;;;;;;5081851;28;20238;-79
2022/03/10 23:23:32;;;;;;;9.00;8.80;;;4.10;99.90;;;;;;5081087;28;20252;-78
2022/03/10 23:26:01;;;;;;;9.40;9.10;;;4.10;99.90;;;;;;5082134;28;20241;-79
2022/03/10 23:28:31;;;;;;;9.37;9.07;;;4.10;99.90;;;;;;5082601;28;20256;-79
2022/03/10 23:31:09;;;;;;;9.30;9.00;;;4.00;99.90;;;;;;5083656;28;20214;-80
2022/03/10 23:33:38;;;;;;;9.27;8.97;;;4.00;99.90;;;;;;5082208;28;20248;-79
2022/03/10 23:36:07;;;;;;;9.67;9.37;;;4.00;99.90;;;;;;5081013;28;20226;-79
2022/03/10 23:38:36;;;;;;;9.50;9.20;;;4.00;99.90;;;;;;5080897;28;20272;-79
2022/03/10 23:41:06;;;;;;;9.10;8.80;;;3.90;99.90;;;;;;5081884;28;20325;-79
2022/03/10 23:43:35;;;;;;;9.10;8.87;;;3.80;99.90;;;;;;5082206;28;20230;-79
2022/03/10 23:46:13;;;;;;;9.00;8.80;;;3.80;99.90;;;;;;5081989;28;20229;-79
2022/03/10 23:48:43;;;;;;;9.50;9.20;;;3.80;99.90;;;;;;5081532;28;20684;-79
2022/03/10 23:51:15;;;;;;;9.40;9.10;;;3.80;99.90;;;;;;5081035;28;20230;-79
2022/03/10 23:53:45;;;;;;;9.50;9.20;;;3.80;99.90;;;;;;5080921;28;20237;-79
2022/03/10 23:56:14;;;;;;;9.47;9.17;;;3.70;99.90;;;;;;5068048;28;20268;-79
2022/03/10 23:58:43;;;;;;;9.60;9.30;;;3.70;99.90;;;;;;5081214;28;20264;-79
